sensor_id;sensor_type;location;lat;lon;timestamp;pressure;altitude;pressure_sealevel;temperature;humidity
62655;BME280;48717;55.556;37.816;2022-11-13T00:02:35;98566.97;;;9.00;56.75
62655;BME280;48717;55.556;37.816;2022-11-13T00:05:21;98550.38;;;8.96;57.19
62655;BME280;48717;55.556;37.816;2022-11-13T00:08:07;98571.47;;;8.93;57.57
62655;BME280;48717;55.556;37.816;2022-11-13T00:11:05;98567.94;;;8.94;57.51
62655;BME280;48717;55.556;37.816;2022-11-13T00:13:53;98589.72;;;9.04;57.04
62655;BME280;48717;55.556;37.816;2022-11-13T00:16:39;98569.53;;;9.05;56.92
62655;BME280;48717;55.556;37.816;2022-11-13T00:19:25;98573.00;;;9.07;56.30
62655;BME280;48717;55.556;37.816;2022-11-13T00:22:10;98542.53;;;8.95;56.25
62655;BME280;48717;55.556;37.816;2022-11-13T00:24:56;98528.63;;;8.86;56.43
62655;BME280;48717;55.556;37.816;2022-11-13T00:27:42;98543.38;;;8.95;55.55
62655;BME280;48717;55.556;37.816;2022-11-13T00:30:27;98562.72;;;8.91;54.75
62655;BME280;48717;55.556;37.816;2022-11-13T00:33:13;98560.13;;;8.90;54.55
62655;BME280;48717;55.556;37.816;2022-11-13T00:36:21;98558.47;;;8.82;54.63
62655;BME280;48717;55.556;37.816;2022-11-13T00:39:11;98569.88;;;8.81;54.76
62655;BME280;48717;55.556;37.816;2022-11-13T00:41:56;98568.22;;;8.74;54.88
62655;BME280;48717;55.556;37.816;2022-11-13T00:44:42;98551.78;;;8.59;55.31
62655;BME280;48717;55.556;37.816;2022-11-13T00:47:29;98546.66;;;8.44;55.42
62655;BME280;48717;55.556;37.816;2022-11-13T00:50:15;98566.59;;;8.64;55.54
62655;BME280;48717;55.556;37.816;2022-11-13T00:53:00;98593.69;;;8.69;56.46
62655;BME280;48717;55.556;37.816;2022-11-13T00:55:46;98573.69;;;8.57;57.04
62655;BME280;48717;55.556;37.816;2022-11-13T00:58:31;98566.63;;;8.62;56.70
62655;BME280;48717;55.556;37.816;2022-11-13T01:01:18;98586.69;;;8.68;55.64
62655;BME280;48717;55.556;37.816;2022-11-13T01:04:05;98600.66;;;8.71;55.83
62655;BME280;48717;55.556;37.816;2022-11-13T01:06:51;98558.84;;;8.51;56.57
62655;BME280;48717;55.556;37.816;2022-11-13T01:09:37;98598.19;;;8.57;57.21
62655;BME280;48717;55.556;37.816;2022-11-13T01:12:22;98592.97;;;8.56;57.08
62655;BME280;48717;55.556;37.816;2022-11-13T01:15:08;98546.81;;;8.31;56.56
62655;BME280;48717;55.556;37.816;2022-11-13T01:17:54;98584.22;;;8.55;56.39
62655;BME280;48717;55.556;37.816;2022-11-13T01:20:40;98565.09;;;8.41;56.90
62655;BME280;48717;55.556;37.816;2022-11-13T01:23:26;98588.63;;;8.53;56.77
62655;BME280;48717;55.556;37.816;2022-11-13T01:28:59;98561.63;;;8.40;56.81
62655;BME280;48717;55.556;37.816;2022-11-13T01:31:45;98600.00;;;8.54;56.29
62655;BME280;48717;55.556;37.816;2022-11-13T01:34:31;98578.09;;;8.52;56.22
62655;BME280;48717;55.556;37.816;2022-11-13T01:37:16;98588.63;;;8.53;55.91
62655;BME280;48717;55.556;37.816;2022-11-13T01:40:02;98598.28;;;8.53;56.89
62655;BME280;48717;55.556;37.816;2022-11-13T01:42:48;98595.69;;;8.45;57.74
62655;BME280;48717;55.556;37.816;2022-11-13T01:54:39;98541.78;;;8.13;55.75
62655;BME280;48717;55.556;37.816;2022-11-13T01:57:25;98579.19;;;8.33;56.44
62655;BME280;48717;55.556;37.816;2022-11-13T02:00:12;98554.69;;;8.31;56.40
62655;BME280;48717;55.556;37.816;2022-11-13T02:02:57;98569.72;;;8.20;56.29
62655;BME280;48717;55.556;37.816;2022-11-13T02:05:43;98578.34;;;8.31;55.80
62655;BME280;48717;55.556;37.816;2022-11-13T02:08:29;98591.44;;;8.33;56.20
62655;BME280;48717;55.556;37.816;2022-11-13T02:11:15;98599.31;;;8.34;56.94
62655;BME280;48717;55.556;37.816;2022-11-13T02:14:03;98588.94;;;8.22;58.92
62655;BME280;48717;55.556;37.816;2022-11-13T02:16:51;98586.44;;;8.13;60.40
62655;BME280;48717;55.556;37.816;2022-11-13T02:19:42;98555.97;;;7.96;61.25
62655;BME280;48717;55.556;37.816;2022-11-13T02:25:40;98583.00;;;8.06;63.10
62655;BME280;48717;55.556;37.816;2022-11-13T02:28:27;98559.59;;;7.82;63.25
62655;BME280;48717;55.556;37.816;2022-11-13T02:31:13;98565.75;;;7.80;63.00
62655;BME280;48717;55.556;37.816;2022-11-13T02:34:01;98577.00;;;7.94;62.71
62655;BME280;48717;55.556;37.816;2022-11-13T02:36:47;98589.25;;;7.94;63.00
62655;BME280;48717;55.556;37.816;2022-11-13T02:39:33;98578.78;;;7.92;63.11
62655;BME280;48717;55.556;37.816;2022-11-13T02:42:18;98579.69;;;7.88;63.70
62655;BME280;48717;55.556;37.816;2022-11-13T02:45:05;98558.88;;;7.68;63.71
62655;BME280;48717;55.556;37.816;2022-11-13T02:47:51;98566.69;;;7.74;63.21
62655;BME280;48717;55.556;37.816;2022-11-13T02:50:37;98550.81;;;7.87;63.38
62655;BME280;48717;55.556;37.816;2022-11-13T02:53:23;98563.16;;;7.78;63.19
62655;BME280;48717;55.556;37.816;2022-11-13T02:56:09;98532.72;;;7.60;63.31
62655;BME280;48717;55.556;37.816;2022-11-13T02:58:55;98532.72;;;7.62;63.79
62655;BME280;48717;55.556;37.816;2022-11-13T03:01:40;98551.00;;;7.71;63.01
62655;BME280;48717;55.556;37.816;2022-11-13T03:04:26;98563.25;;;7.69;63.02
62655;BME280;48717;55.556;37.816;2022-11-13T03:07:31;98558.00;;;7.69;62.62
62655;BME280;48717;55.556;37.816;2022-11-13T03:10:17;98543.13;;;7.73;62.53
62655;BME280;48717;55.556;37.816;2022-11-13T03:13:02;98554.44;;;7.76;62.86
62655;BME280;48717;55.556;37.816;2022-11-13T03:15:48;98506.59;;;7.49;62.97
62655;BME280;48717;55.556;37.816;2022-11-13T03:18:34;98542.34;;;7.60;62.70
62655;BME280;48717;55.556;37.816;2022-11-13T03:21:19;98551.03;;;7.65;62.07
62655;BME280;48717;55.556;37.816;2022-11-13T03:24:05;98547.56;;;7.66;61.03
62655;BME280;48717;55.556;37.816;2022-11-13T03:26:51;98539.72;;;7.61;61.31
62655;BME280;48717;55.556;37.816;2022-11-13T03:29:36;98522.34;;;7.48;61.59
62655;BME280;48717;55.556;37.816;2022-11-13T03:32:22;98537.16;;;7.53;60.45
62655;BME280;48717;55.556;37.816;2022-11-13T03:35:08;98534.53;;;7.53;60.55
62655;BME280;48717;55.556;37.816;2022-11-13T03:37:53;98551.03;;;7.65;60.11
62655;BME280;48717;55.556;37.816;2022-11-13T03:40:41;98581.59;;;7.70;60.26
62655;BME280;48717;55.556;37.816;2022-11-13T03:43:27;98537.16;;;7.53;60.34
62655;BME280;48717;55.556;37.816;2022-11-13T03:46:12;98583.41;;;7.65;61.05
62655;BME280;48717;55.556;37.816;2022-11-13T03:48:58;98551.19;;;7.49;63.15
62655;BME280;48717;55.556;37.816;2022-11-13T03:51:44;98563.56;;;7.31;63.27
62655;BME280;48717;55.556;37.816;2022-11-13T03:54:30;98567.09;;;7.30;62.53
62655;BME280;48717;55.556;37.816;2022-11-13T03:57:15;98566.19;;;7.31;61.59
62655;BME280;48717;55.556;37.816;2022-11-13T04:00:00;98588.00;;;7.40;60.81
62655;BME280;48717;55.556;37.816;2022-11-13T04:02:46;98554.84;;;7.29;59.97
62655;BME280;48717;55.556;37.816;2022-11-13T04:05:31;98574.81;;;7.48;59.02
62655;BME280;48717;55.556;37.816;2022-11-13T04:08:17;98577.44;;;7.46;60.11
62655;BME280;48717;55.556;37.816;2022-11-13T04:11:08;98553.03;;;7.38;57.92
62655;BME280;48717;55.556;37.816;2022-11-13T04:13:53;98577.53;;;7.34;58.25
62655;BME280;48717;55.556;37.816;2022-11-13T04:16:39;98580.16;;;7.35;59.23
62655;BME280;48717;55.556;37.816;2022-11-13T04:19:24;98564.56;;;7.18;58.69
62655;BME280;48717;55.556;37.816;2022-11-13T04:22:10;98546.28;;;7.05;58.68
62655;BME280;48717;55.556;37.816;2022-11-13T04:24:56;98592.63;;;6.99;60.85
62655;BME280;48717;55.556;37.816;2022-11-13T04:27:41;98575.25;;;6.82;62.46
62655;BME280;48717;55.556;37.816;2022-11-13T04:30:27;98572.75;;;6.68;62.78
62655;BME280;48717;55.556;37.816;2022-11-13T04:33:13;98562.31;;;6.49;62.12
62655;BME280;48717;55.556;37.816;2022-11-13T04:35:58;98576.25;;;6.64;61.01
62655;BME280;48717;55.556;37.816;2022-11-13T04:38:44;98559.66;;;6.65;60.05
62655;BME280;48717;55.556;37.816;2022-11-13T04:41:30;98600.56;;;6.91;59.90
62655;BME280;48717;55.556;37.816;2022-11-13T04:44:39;98597.88;;;6.99;58.31
62655;BME280;48717;55.556;37.816;2022-11-13T04:47:25;98583.09;;;6.90;59.12
62655;BME280;48717;55.556;37.816;2022-11-13T04:50:11;98614.44;;;7.09;58.80
62655;BME280;48717;55.556;37.816;2022-11-13T04:52:57;98610.91;;;7.10;58.58
62655;BME280;48717;55.556;37.816;2022-11-13T04:55:44;98586.50;;;7.04;59.00
62655;BME280;48717;55.556;37.816;2022-11-13T04:58:30;98616.22;;;7.00;59.30
62655;BME280;48717;55.556;37.816;2022-11-13T05:01:16;98609.25;;;6.99;59.68
62655;BME280;48717;55.556;37.816;2022-11-13T05:04:02;98598.78;;;6.96;59.50
62655;BME280;48717;55.556;37.816;2022-11-13T05:06:48;98591.91;;;6.73;59.81
62655;BME280;48717;55.556;37.816;2022-11-13T05:09:34;98627.66;;;6.90;60.04
62655;BME280;48717;55.556;37.816;2022-11-13T05:12:20;98628.50;;;6.89;60.09
62655;BME280;48717;55.556;37.816;2022-11-13T05:15:06;98618.03;;;6.87;60.69
62655;BME280;48717;55.556;37.816;2022-11-13T05:17:52;98623.25;;;6.92;60.67
62655;BME280;48717;55.556;37.816;2022-11-13T05:20:39;98602.34;;;6.79;60.83
62655;BME280;48717;55.556;37.816;2022-11-13T05:23:25;98622.38;;;6.93;60.51
62655;BME280;48717;55.556;37.816;2022-11-13T05:26:11;98605.84;;;6.82;60.75
62655;BME280;48717;55.556;37.816;2022-11-13T05:28:58;98625.88;;;6.87;60.54
62655;BME280;48717;55.556;37.816;2022-11-13T05:31:44;98613.59;;;6.99;60.78
62655;BME280;48717;55.556;37.816;2022-11-13T05:34:30;98633.69;;;7.03;60.88
62655;BME280;48717;55.556;37.816;2022-11-13T05:37:15;98629.28;;;7.07;60.84
62655;BME280;48717;55.556;37.816;2022-11-13T05:40:01;98645.91;;;7.02;60.67
62655;BME280;48717;55.556;37.816;2022-11-13T05:42:46;98591.81;;;6.89;61.86
62655;BME280;48717;55.556;37.816;2022-11-13T05:45:32;98621.50;;;6.92;61.68
62655;BME280;48717;55.556;37.816;2022-11-13T05:48:18;98617.22;;;6.79;62.89
62655;BME280;48717;55.556;37.816;2022-11-13T05:53:54;98639.03;;;6.76;63.45
62655;BME280;48717;55.556;37.816;2022-11-13T05:56:40;98628.53;;;6.86;63.48
62655;BME280;48717;55.556;37.816;2022-11-13T05:59:26;98618.91;;;6.86;63.47
62655;BME280;48717;55.556;37.816;2022-11-13T06:02:12;98650.25;;;7.07;62.40
62655;BME280;48717;55.556;37.816;2022-11-13T06:04:58;98648.47;;;7.12;62.41
62655;BME280;48717;55.556;37.816;2022-11-13T06:07:44;98624.97;;;6.96;62.09
62655;BME280;48717;55.556;37.816;2022-11-13T06:10:29;98665.06;;;7.17;62.22
62655;BME280;48717;55.556;37.816;2022-11-13T06:13:15;98660.69;;;7.16;61.83
62655;BME280;48717;55.556;37.816;2022-11-13T06:16:28;98684.25;;;7.22;61.94
62655;BME280;48717;55.556;37.816;2022-11-13T06:19:13;98712.25;;;7.09;64.00
62655;BME280;48717;55.556;37.816;2022-11-13T06:21:59;98710.56;;;6.97;68.09
62655;BME280;48717;55.556;37.816;2022-11-13T06:24:45;98702.00;;;6.51;68.68
62655;BME280;48717;55.556;37.816;2022-11-13T06:27:30;98716.00;;;6.50;69.30
62655;BME280;48717;55.556;37.816;2022-11-13T06:30:16;98728.19;;;6.48;70.42
62655;BME280;48717;55.556;37.816;2022-11-13T06:33:02;98704.66;;;6.37;69.67
62655;BME280;48717;55.556;37.816;2022-11-13T06:35:48;98723.84;;;6.41;70.02
62655;BME280;48717;55.556;37.816;2022-11-13T06:38:36;98716.84;;;6.40;68.14
62655;BME280;48717;55.556;37.816;2022-11-13T06:41:26;98730.81;;;6.51;67.43
62655;BME280;48717;55.556;37.816;2022-11-13T06:44:13;98724.66;;;6.77;65.83
62655;BME280;48717;55.556;37.816;2022-11-13T06:46:58;98733.19;;;7.26;64.11
62655;BME280;48717;55.556;37.816;2022-11-13T06:49:44;98735.56;;;7.64;62.25
62655;BME280;48717;55.556;37.816;2022-11-13T06:52:31;98742.31;;;8.02;60.70
62655;BME280;48717;55.556;37.816;2022-11-13T06:55:16;98737.78;;;8.23;59.01
62655;BME280;48717;55.556;37.816;2022-11-13T06:58:02;98695.00;;;8.08;57.84
62655;BME280;48717;55.556;37.816;2022-11-13T07:00:48;98708.19;;;7.99;58.22
62655;BME280;48717;55.556;37.816;2022-11-13T07:03:34;98744.13;;;7.94;58.57
62655;BME280;48717;55.556;37.816;2022-11-13T07:06:22;98749.38;;;7.89;58.06
62655;BME280;48717;55.556;37.816;2022-11-13T07:09:08;98728.72;;;7.46;57.83
62655;BME280;48717;55.556;37.816;2022-11-13T07:11:53;98755.59;;;7.74;58.28
62655;BME280;48717;55.556;37.816;2022-11-13T07:14:39;98772.84;;;8.16;56.81
62655;BME280;48717;55.556;37.816;2022-11-13T07:17:25;98776.78;;;8.67;55.50
62655;BME280;48717;55.556;37.816;2022-11-13T07:20:12;98760.53;;;9.10;54.07
62655;BME280;48717;55.556;37.816;2022-11-13T07:22:59;98745.66;;;9.09;53.20
62655;BME280;48717;55.556;37.816;2022-11-13T07:25:45;98769.88;;;9.33;53.21
62655;BME280;48717;55.556;37.816;2022-11-13T07:28:30;98791.53;;;9.57;52.65
62655;BME280;48717;55.556;37.816;2022-11-13T07:31:17;98800.53;;;9.39;52.47
62655;BME280;48717;55.556;37.816;2022-11-13T07:34:02;98786.09;;;8.99;52.66
62655;BME280;48717;55.556;37.816;2022-11-13T07:36:48;98794.41;;;8.49;54.82
62655;BME280;48717;55.556;37.816;2022-11-13T07:39:34;98788.38;;;8.41;55.75
62655;BME280;48717;55.556;37.816;2022-11-13T07:42:19;98807.88;;;8.13;56.25
62655;BME280;48717;55.556;37.816;2022-11-13T07:45:05;98810.59;;;7.97;56.20
62655;BME280;48717;55.556;37.816;2022-11-13T07:47:51;98806.22;;;7.98;55.79
62655;BME280;48717;55.556;37.816;2022-11-13T07:50:37;98811.59;;;7.79;55.13
62655;BME280;48717;55.556;37.816;2022-11-13T07:53:24;98831.00;;;7.41;55.66
62655;BME280;48717;55.556;37.816;2022-11-13T07:56:10;98812.72;;;7.22;56.49
62655;BME280;48717;55.556;37.816;2022-11-13T07:58:55;98817.13;;;7.14;56.45
62655;BME280;48717;55.556;37.816;2022-11-13T08:01:41;98815.31;;;7.28;55.97
62655;BME280;48717;55.556;37.816;2022-11-13T08:04:28;98828.03;;;8.05;54.49
62655;BME280;48717;55.556;37.816;2022-11-13T08:07:14;98785.56;;;8.64;52.32
62655;BME280;48717;55.556;37.816;2022-11-13T08:10:00;98829.66;;;9.22;50.85
62655;BME280;48717;55.556;37.816;2022-11-13T08:12:46;98825.84;;;9.48;50.34
62655;BME280;48717;55.556;37.816;2022-11-13T08:15:32;98780.09;;;8.83;51.10
62655;BME280;48717;55.556;37.816;2022-11-13T08:18:18;98826.47;;;8.92;52.93
62655;BME280;48717;55.556;37.816;2022-11-13T08:21:04;98821.50;;;8.64;51.86
62655;BME280;48717;55.556;37.816;2022-11-13T08:23:57;98824.22;;;8.45;53.26
62655;BME280;48717;55.556;37.816;2022-11-13T08:26:43;98815.56;;;8.35;53.27
62655;BME280;48717;55.556;37.816;2022-11-13T08:29:29;98833.16;;;8.25;53.24
62655;BME280;48717;55.556;37.816;2022-11-13T08:32:15;98827.97;;;8.13;53.68
62655;BME280;48717;55.556;37.816;2022-11-13T08:35:01;98862.13;;;8.13;53.68
62655;BME280;48717;55.556;37.816;2022-11-13T08:37:47;98836.38;;;8.63;54.30
62655;BME280;48717;55.556;37.816;2022-11-13T08:40:33;98848.50;;;8.80;52.92
62655;BME280;48717;55.556;37.816;2022-11-13T08:43:19;98830.19;;;8.72;52.06
62655;BME280;48717;55.556;37.816;2022-11-13T08:46:05;98834.47;;;8.79;51.63
62655;BME280;48717;55.556;37.816;2022-11-13T08:48:50;98870.13;;;9.08;51.70
62655;BME280;48717;55.556;37.816;2022-11-13T08:51:36;98876.78;;;9.44;50.91
62655;BME280;48717;55.556;37.816;2022-11-13T08:54:21;98869.75;;;9.43;50.56
62655;BME280;48717;55.556;37.816;2022-11-13T08:57:07;98876.09;;;9.27;51.18
62655;BME280;48717;55.556;37.816;2022-11-13T08:59:53;98835.38;;;8.78;52.03
62655;BME280;48717;55.556;37.816;2022-11-13T09:02:38;98876.53;;;8.81;52.42
62655;BME280;48717;55.556;37.816;2022-11-13T09:05:25;98861.59;;;8.84;52.66
62655;BME280;48717;55.556;37.816;2022-11-13T09:08:10;98888.94;;;8.65;52.83
62655;BME280;48717;55.556;37.816;2022-11-13T09:10:56;98898.63;;;8.56;53.10
62655;BME280;48717;55.556;37.816;2022-11-13T09:13:46;98885.53;;;8.47;53.88
62655;BME280;48717;55.556;37.816;2022-11-13T09:16:37;98905.72;;;8.42;54.18
62655;BME280;48717;55.556;37.816;2022-11-13T09:19:23;98895.34;;;8.17;54.69
62655;BME280;48717;55.556;37.816;2022-11-13T09:22:10;98910.28;;;8.07;55.20
62655;BME280;48717;55.556;37.816;2022-11-13T09:24:56;98884.91;;;8.04;55.63
62655;BME280;48717;55.556;37.816;2022-11-13T09:27:41;98822.09;;;7.76;55.44
62655;BME280;48717;55.556;37.816;2022-11-13T09:30:28;98902.50;;;7.93;55.70
62655;BME280;48717;55.556;37.816;2022-11-13T09:33:14;98872.03;;;7.57;56.35
62655;BME280;48717;55.556;37.816;2022-11-13T09:35:59;98888.59;;;7.69;56.86
62655;BME280;48717;55.556;37.816;2022-11-13T09:38:45;98906.16;;;7.54;57.29
62655;BME280;48717;55.556;37.816;2022-11-13T09:41:36;98885.91;;;7.81;57.09
62655;BME280;48717;55.556;37.816;2022-11-13T09:44:59;98896.94;;;8.43;54.72
62655;BME280;48717;55.556;37.816;2022-11-13T09:47:43;98893.28;;;8.69;52.65
62655;BME280;48717;55.556;37.816;2022-11-13T09:50:31;98913.22;;;8.93;52.51
62655;BME280;48717;55.556;37.816;2022-11-13T09:53:18;98924.75;;;8.75;52.75
62655;BME280;48717;55.556;37.816;2022-11-13T10:08:21;98902.50;;;7.93;53.61
62655;BME280;48717;55.556;37.816;2022-11-13T10:14:10;98952.44;;;7.71;53.50
62655;BME280;48717;55.556;37.816;2022-11-13T10:20:20;98928.97;;;7.18;54.92
62655;BME280;48717;55.556;37.816;2022-11-13T10:23:21;98951.69;;;7.08;55.46
62655;BME280;48717;55.556;37.816;2022-11-13T10:26:15;98970.03;;;6.77;58.07
62655;BME280;48717;55.556;37.816;2022-11-13T10:29:15;99005.81;;;6.51;63.78
62655;BME280;48717;55.556;37.816;2022-11-13T10:38:00;98994.13;;;5.76;69.81
62655;BME280;48717;55.556;37.816;2022-11-13T10:41:06;99012.59;;;6.03;68.53
62655;BME280;48717;55.556;37.816;2022-11-13T10:44:03;98999.47;;;5.95;67.37
62655;BME280;48717;55.556;37.816;2022-11-13T10:46:49;99019.72;;;6.33;65.91
62655;BME280;48717;55.556;37.816;2022-11-13T10:49:35;99030.28;;;6.69;61.37
62655;BME280;48717;55.556;37.816;2022-11-13T10:52:26;99028.63;;;7.21;58.11
62655;BME280;48717;55.556;37.816;2022-11-13T10:55:30;99013.69;;;7.62;56.63
62655;BME280;48717;55.556;37.816;2022-11-13T10:58:22;99023.25;;;7.93;55.84
62655;BME280;48717;55.556;37.816;2022-11-13T11:01:18;99018.06;;;7.73;55.18
62655;BME280;48717;55.556;37.816;2022-11-13T11:04:18;99046.06;;;7.38;56.16
62655;BME280;48717;55.556;37.816;2022-11-13T11:10:28;99060.91;;;6.90;57.82
62655;BME280;48717;55.556;37.816;2022-11-13T11:13:21;99060.88;;;6.81;58.06
62655;BME280;48717;55.556;37.816;2022-11-13T11:16:09;99050.38;;;6.64;58.34
62655;BME280;48717;55.556;37.816;2022-11-13T11:19:00;99050.34;;;6.51;58.76
62655;BME280;48717;55.556;37.816;2022-11-13T11:21:49;99058.16;;;6.47;58.64
62655;BME280;48717;55.556;37.816;2022-11-13T11:24:46;99059.91;;;6.49;58.52
62655;BME280;48717;55.556;37.816;2022-11-13T11:27:40;99065.16;;;6.43;58.08
62655;BME280;48717;55.556;37.816;2022-11-13T11:30:34;99049.50;;;6.81;56.32
62655;BME280;48717;55.556;37.816;2022-11-13T11:33:31;99053.06;;;7.36;54.46
62655;BME280;48717;55.556;37.816;2022-11-13T11:39:59;99073.91;;;8.17;52.12
62655;BME280;48717;55.556;37.816;2022-11-13T11:42:58;99065.91;;;8.48;52.15
62655;BME280;48717;55.556;37.816;2022-11-13T11:45:46;99023.22;;;8.05;51.79
62655;BME280;48717;55.556;37.816;2022-11-13T11:48:33;99073.00;;;8.35;52.79
62655;BME280;48717;55.556;37.816;2022-11-13T11:51:33;99077.31;;;8.56;52.77
62655;BME280;48717;55.556;37.816;2022-11-13T11:54:39;99059.06;;;8.17;51.86
62655;BME280;48717;55.556;37.816;2022-11-13T12:00:20;99060.06;;;7.49;54.51
62655;BME280;48717;55.556;37.816;2022-11-13T12:03:28;99102.03;;;7.62;55.67
62655;BME280;48717;55.556;37.816;2022-11-13T12:09:37;99088.00;;;7.78;54.95
62655;BME280;48717;55.556;37.816;2022-11-13T12:18:53;99087.16;;;7.50;53.21
62655;BME280;48717;55.556;37.816;2022-11-13T12:21:52;99108.13;;;7.22;53.96
62655;BME280;48717;55.556;37.816;2022-11-13T12:24:49;99107.22;;;7.05;54.57
62655;BME280;48717;55.556;37.816;2022-11-13T12:27:52;99123.78;;;6.81;55.91
62655;BME280;48717;55.556;37.816;2022-11-13T12:34:17;99136.69;;;6.39;57.63
62655;BME280;48717;55.556;37.816;2022-11-13T12:37:15;99109.59;;;6.24;57.25
62655;BME280;48717;55.556;37.816;2022-11-13T12:40:07;99156.00;;;6.57;56.83
62655;BME280;48717;55.556;37.816;2022-11-13T12:45:52;99129.78;;;6.50;56.46
62655;BME280;48717;55.556;37.816;2022-11-13T12:48:41;99136.63;;;6.26;58.04
62655;BME280;48717;55.556;37.816;2022-11-13T12:51:37;99156.63;;;6.10;58.60
62655;BME280;48717;55.556;37.816;2022-11-13T12:54:34;99191.41;;;6.00;59.91
62655;BME280;48717;55.556;37.816;2022-11-13T12:57:23;99187.81;;;5.88;59.94
62655;BME280;48717;55.556;37.816;2022-11-13T13:00:49;99195.66;;;5.84;60.38
62655;BME280;48717;55.556;37.816;2022-11-13T13:15:44;99223.59;;;5.00;71.19
62655;BME280;48717;55.556;37.816;2022-11-13T13:18:38;99230.34;;;4.85;70.88
62655;BME280;48717;55.556;37.816;2022-11-13T13:21:23;99195.25;;;4.63;71.54
62655;BME280;48717;55.556;37.816;2022-11-13T13:27:25;99238.28;;;4.91;70.66
62655;BME280;48717;55.556;37.816;2022-11-13T13:30:18;99243.63;;;5.02;72.25
62655;BME280;48717;55.556;37.816;2022-11-13T13:46:18;99220.13;;;5.05;65.57
62655;BME280;48717;55.556;37.816;2022-11-13T13:49:12;99233.19;;;5.02;64.87
62655;BME280;48717;55.556;37.816;2022-11-13T13:51:59;99249.69;;;5.01;65.24
62655;BME280;48717;55.556;37.816;2022-11-13T13:54:44;99253.25;;;5.05;65.38
62655;BME280;48717;55.556;37.816;2022-11-13T13:57:33;99280.25;;;5.07;66.12
62655;BME280;48717;55.556;37.816;2022-11-13T14:00:24;99247.03;;;4.95;66.74
62655;BME280;48717;55.556;37.816;2022-11-13T14:03:19;99274.94;;;4.97;66.97
62655;BME280;48717;55.556;37.816;2022-11-13T14:06:22;99312.56;;;5.11;67.28
62655;BME280;48717;55.556;37.816;2022-11-13T14:09:10;99299.41;;;5.04;68.61
62655;BME280;48717;55.556;37.816;2022-11-13T14:12:04;99299.25;;;4.93;70.42
62655;BME280;48717;55.556;37.816;2022-11-13T14:14:54;99305.28;;;4.86;70.07
62655;BME280;48717;55.556;37.816;2022-11-13T14:17:39;99288.59;;;4.78;68.75
62655;BME280;48717;55.556;37.816;2022-11-13T14:20:25;99257.03;;;4.62;68.54
62655;BME280;48717;55.556;37.816;2022-11-13T14:23:18;99304.41;;;4.87;68.68
62655;BME280;48717;55.556;37.816;2022-11-13T14:26:06;99307.97;;;4.94;68.17
62655;BME280;48717;55.556;37.816;2022-11-13T14:28:58;99295.75;;;4.91;68.23
62655;BME280;48717;55.556;37.816;2022-11-13T14:31:45;99298.44;;;4.97;67.15
62655;BME280;48717;55.556;37.816;2022-11-13T14:34:45;99292.28;;;4.92;67.29
62655;BME280;48717;55.556;37.816;2022-11-13T14:37:34;99308.16;;;5.08;66.64
62655;BME280;48717;55.556;37.816;2022-11-13T14:40:24;99300.97;;;4.91;66.25
62655;BME280;48717;55.556;37.816;2022-11-13T14:43:24;99322.91;;;5.04;66.56
62655;BME280;48717;55.556;37.816;2022-11-13T14:49:31;99358.75;;;5.13;66.82
62655;BME280;48717;55.556;37.816;2022-11-13T14:52:22;99307.97;;;4.92;66.52
62655;BME280;48717;55.556;37.816;2022-11-13T14:55:24;99353.31;;;4.97;66.43
62655;BME280;48717;55.556;37.816;2022-11-13T14:58:11;99375.19;;;5.04;65.96
62655;BME280;48717;55.556;37.816;2022-11-13T15:01:10;99339.06;;;4.77;66.69
62655;BME280;48717;55.556;37.816;2022-11-13T15:03:56;99364.56;;;4.90;66.75
62655;BME280;48717;55.556;37.816;2022-11-13T15:06:44;99339.06;;;4.77;66.07
62655;BME280;48717;55.556;37.816;2022-11-13T15:09:30;99378.56;;;4.95;66.19
62655;BME280;48717;55.556;37.816;2022-11-13T15:12:15;99376.69;;;4.88;66.40
62655;BME280;48717;55.556;37.816;2022-11-13T15:15:01;99382.00;;;4.94;66.82
62655;BME280;48717;55.556;37.816;2022-11-13T15:17:49;99385.50;;;4.95;66.38
62655;BME280;48717;55.556;37.816;2022-11-13T15:20:35;99392.44;;;4.91;66.26
62655;BME280;48717;55.556;37.816;2022-11-13T15:23:25;99394.97;;;4.88;66.32
62655;BME280;48717;55.556;37.816;2022-11-13T15:26:14;99386.97;;;4.77;66.42
62655;BME280;48717;55.556;37.816;2022-11-13T15:29:01;99410.59;;;4.85;67.05
62655;BME280;48717;55.556;37.816;2022-11-13T15:31:47;99403.56;;;4.81;66.94
62655;BME280;48717;55.556;37.816;2022-11-13T15:34:32;99415.88;;;4.88;66.22
62655;BME280;48717;55.556;37.816;2022-11-13T15:37:19;99386.13;;;4.78;66.12
62655;BME280;48717;55.556;37.816;2022-11-13T15:40:05;99405.25;;;4.77;66.69
62655;BME280;48717;55.556;37.816;2022-11-13T15:42:52;99403.53;;;4.78;65.74
62655;BME280;48717;55.556;37.816;2022-11-13T15:45:38;99430.63;;;4.85;66.31
62655;BME280;48717;55.556;37.816;2022-11-13T15:48:28;99442.81;;;4.84;66.15
62655;BME280;48717;55.556;37.816;2022-11-13T15:54:33;99431.50;;;4.85;66.03
62655;BME280;48717;55.556;37.816;2022-11-13T15:57:25;99442.78;;;4.82;65.69
62655;BME280;48717;55.556;37.816;2022-11-13T16:00:18;99445.38;;;4.79;65.50
62655;BME280;48717;55.556;37.816;2022-11-13T16:03:07;99432.13;;;4.70;65.82
62655;BME280;48717;55.556;37.816;2022-11-13T16:05:59;99434.75;;;4.72;65.44
62655;BME280;48717;55.556;37.816;2022-11-13T16:08:46;99443.50;;;4.72;65.15
62655;BME280;48717;55.556;37.816;2022-11-13T16:11:34;99429.25;;;4.53;64.66
62655;BME280;48717;55.556;37.816;2022-11-13T16:14:19;99477.38;;;4.69;64.48
62655;BME280;48717;55.556;37.816;2022-11-13T16:17:17;99451.09;;;4.58;65.12
62655;BME280;48717;55.556;37.816;2022-11-13T16:20:05;99477.44;;;4.72;65.03
62655;BME280;48717;55.556;37.816;2022-11-13T16:22:56;99444.84;;;4.50;64.83
62655;BME280;48717;55.556;37.816;2022-11-13T16:25:46;99441.19;;;4.38;65.06
62655;BME280;48717;55.556;37.816;2022-11-13T16:28:33;99465.09;;;4.63;64.83
62655;BME280;48717;55.556;37.816;2022-11-13T16:31:38;99485.16;;;4.64;64.75
62655;BME280;48717;55.556;37.816;2022-11-13T16:34:28;99478.97;;;4.61;64.67
62655;BME280;48717;55.556;37.816;2022-11-13T16:37:21;99482.50;;;4.63;64.63